Littleton, Illinois
Current Conditions -  °F | °C
As of 11:35 AM on Friday 31 Oct 2014 (Local Time) from KMQB Reporting Station
Clear Clear  
Wind Chill: 30°   Ceiling: Unl
Heat Index: 40°   Visibility: 10mi
Dew Point: 24°   Wind: 24mph
Humidity: 53%   Direction: 340°NNW
Pressure: 30.36"   Gusts: 33mph
Location:  40.23°N, 90.62°W
Report Text: KMQB 311635Z AUTO 34021G29KT 10SM CLR 05/M04 A3036 RMK AO2 T00451043
Loading
Personal Weather Stations






























Interactive Weather Map
Tropical Storm Tracking
New forecast layout! Learn more

10-Day Weather Forecast

Advertisements
Track Severe Weather on mobile